createdAt,value
2017-09-28T00:00:08.612Z,0
2017-09-28T00:01:09.345Z,0
2017-09-28T00:02:08.118Z,0
2017-09-28T00:03:09.032Z,0
2017-09-28T00:04:08.406Z,0
2017-09-28T00:05:09.381Z,0
2017-09-28T00:06:09.012Z,0
2017-09-28T00:07:09.316Z,0
2017-09-28T00:08:08.392Z,0
2017-09-28T00:09:09.014Z,0
2017-09-28T00:10:09.033Z,0
2017-09-28T00:11:08.704Z,0
2017-09-28T00:12:08.388Z,0
2017-09-28T00:13:09.367Z,0
2017-09-28T00:14:08.713Z,0
2017-09-28T00:15:09.412Z,0
2017-09-28T00:16:09.035Z,0
2017-09-28T00:17:09.321Z,0
2017-09-28T00:18:08.716Z,0
2017-09-28T00:19:09.332Z,0
2017-09-28T00:20:09.337Z,0
2017-09-28T00:21:08.699Z,0
2017-09-28T00:22:08.700Z,0
2017-09-28T00:23:08.697Z,0
2017-09-28T00:24:09.003Z,0
2017-09-28T00:25:09.398Z,0
2017-09-28T00:26:09.317Z,0
2017-09-28T00:27:09.317Z,0
2017-09-28T00:28:08.698Z,0
2017-09-28T00:29:09.005Z,0
2017-09-28T00:30:10.203Z,0
2017-09-28T00:31:08.692Z,0
2017-09-28T00:32:08.696Z,0
2017-09-28T00:33:09.315Z,0
2017-09-28T00:34:08.692Z,0
2017-09-28T00:35:09.382Z,0
2017-09-28T00:36:09.000Z,0
2017-09-28T00:37:09.328Z,0
2017-09-28T00:38:09.002Z,0
2017-09-28T00:39:08.998Z,0
2017-09-28T00:40:09.737Z,0
2017-09-28T00:41:09.314Z,0
2017-09-28T00:42:09.014Z,0
2017-09-28T00:43:09.312Z,0
2017-09-28T00:44:09.016Z,0
2017-09-28T00:45:09.357Z,0
2017-09-28T00:46:08.697Z,0
2017-09-28T00:47:09.323Z,0
2017-09-28T00:48:08.690Z,0
2017-09-28T00:49:09.299Z,0
2017-09-28T00:50:09.335Z,0
2017-09-28T00:51:08.997Z,0
2017-09-28T00:52:09.003Z,0
2017-09-28T00:53:08.990Z,0
2017-09-28T00:54:09.298Z,0
2017-09-28T00:55:09.370Z,0
2017-09-28T00:56:08.993Z,0
2017-09-28T00:57:08.688Z,0
2017-09-28T00:58:09.293Z,0
2017-09-28T00:59:09.291Z,0
2017-09-28T01:00:16.454Z,0
2017-09-28T01:01:09.298Z,0
2017-09-28T01:02:09.298Z,0
2017-09-28T01:03:08.984Z,0
2017-09-28T01:04:08.990Z,0
2017-09-28T01:05:08.688Z,0
2017-09-28T01:06:09.312Z,0
2017-09-28T01:07:08.991Z,0
2017-09-28T01:08:08.986Z,0
2017-09-28T01:09:09.302Z,0
2017-09-28T01:10:09.461Z,0
2017-09-28T01:11:08.978Z,0
2017-09-28T01:12:08.977Z,0
2017-09-28T01:13:08.987Z,0
2017-09-28T01:14:08.668Z,0
2017-09-28T01:15:11.011Z,0
2017-09-28T01:16:08.394Z,0
2017-09-28T01:17:09.291Z,0
2017-09-28T01:18:08.670Z,0
2017-09-28T01:19:09.001Z,0
2017-09-28T01:20:09.680Z,0
2017-09-28T01:21:08.670Z,0
2017-09-28T01:22:09.282Z,0
2017-09-28T01:23:08.353Z,0
2017-09-28T01:24:08.982Z,0
2017-09-28T01:25:09.677Z,0
2017-09-28T01:26:10.097Z,0
2017-09-28T01:27:08.974Z,0
2017-09-28T01:28:08.970Z,0
2017-09-28T01:29:09.280Z,0
2017-09-28T01:30:08.917Z,0
2017-09-28T01:31:10.579Z,0
2017-09-28T01:32:08.999Z,0
2017-09-28T01:33:08.990Z,0
2017-09-28T01:34:08.649Z,0
2017-09-28T01:35:09.350Z,0
2017-09-28T01:36:08.959Z,0
2017-09-28T01:37:09.275Z,0
2017-09-28T01:38:09.271Z,0
2017-09-28T01:39:08.959Z,0
2017-09-28T01:40:08.927Z,0
2017-09-28T01:41:08.980Z,0
2017-09-28T01:42:08.648Z,0
2017-09-28T01:43:09.261Z,0
2017-09-28T01:44:09.261Z,0
2017-09-28T01:45:08.563Z,0
2017-09-28T01:46:09.007Z,0
2017-09-28T01:47:08.954Z,0
2017-09-28T01:48:08.945Z,0
2017-09-28T01:49:08.954Z,0
2017-09-28T01:50:09.104Z,0
2017-09-28T01:51:08.957Z,0
2017-09-28T01:52:08.958Z,0
2017-09-28T01:53:08.960Z,0
2017-09-28T01:54:08.950Z,0
2017-09-28T01:55:09.292Z,0
2017-09-28T01:56:08.946Z,0
2017-09-28T01:57:09.262Z,0
2017-09-28T01:58:08.950Z,0
2017-09-28T01:59:08.322Z,0
2017-09-28T02:00:09.647Z,0
2017-09-28T02:01:09.930Z,0
2017-09-28T02:02:08.935Z,0
2017-09-28T02:03:09.261Z,0
2017-09-28T02:04:09.255Z,0
2017-09-28T02:05:08.933Z,0
2017-09-28T02:06:08.926Z,0
2017-09-28T02:07:09.263Z,0
2017-09-28T02:08:09.240Z,0
2017-09-28T02:09:08.623Z,0
2017-09-28T02:10:09.565Z,0
2017-09-28T02:11:09.240Z,0
2017-09-28T02:12:08.934Z,0
2017-09-28T02:13:09.238Z,0
2017-09-28T02:14:08.929Z,0
2017-09-28T02:15:09.291Z,0
2017-09-28T02:16:08.921Z,0
2017-09-28T02:17:08.932Z,0
2017-09-28T02:18:08.622Z,0
2017-09-28T02:19:08.930Z,0
2017-09-28T02:20:09.629Z,0
2017-09-28T02:21:09.227Z,0
2017-09-28T02:22:09.269Z,0
2017-09-28T02:23:08.615Z,0
2017-09-28T02:24:09.234Z,0
2017-09-28T02:25:09.153Z,0
2017-09-28T02:26:08.617Z,0
2017-09-28T02:27:09.222Z,0
2017-09-28T02:28:08.913Z,0
2017-09-28T02:29:08.599Z,0
2017-09-28T02:30:08.874Z,0
2017-09-28T02:31:09.922Z,0
2017-09-28T02:32:08.623Z,0
2017-09-28T02:33:09.222Z,0
2017-09-28T02:34:08.913Z,0
2017-09-28T02:35:09.549Z,0
2017-09-28T02:36:08.911Z,0
2017-09-28T02:37:09.280Z,0
2017-09-28T02:38:08.910Z,0
2017-09-28T02:39:08.599Z,0
2017-09-28T02:40:09.321Z,0
2017-09-28T02:41:09.229Z,0
2017-09-28T02:42:08.903Z,0
2017-09-28T02:43:09.219Z,0
2017-09-28T02:44:08.898Z,0
2017-09-28T02:45:09.205Z,0
2017-09-28T02:46:09.203Z,0
2017-09-28T02:47:09.214Z,0
2017-09-28T02:48:08.894Z,0
2017-09-28T02:49:09.210Z,0
2017-09-28T02:50:09.193Z,0
2017-09-28T02:51:08.888Z,0
2017-09-28T02:52:08.901Z,0
2017-09-28T02:53:08.586Z,0
2017-09-28T02:54:09.201Z,0
2017-09-28T02:55:08.903Z,0
2017-09-28T02:56:08.896Z,0
2017-09-28T02:57:08.576Z,0
2017-09-28T02:58:08.261Z,0
2017-09-28T02:59:08.892Z,0
2017-09-28T03:00:09.537Z,0
2017-09-28T03:01:08.826Z,0
2017-09-28T03:02:08.881Z,0
2017-09-28T03:03:08.903Z,0
2017-09-28T03:04:08.883Z,0
2017-09-28T03:05:09.159Z,0
2017-09-28T03:06:08.889Z,0
2017-09-28T03:07:09.181Z,0
2017-09-28T03:08:08.577Z,0
2017-09-28T03:09:08.883Z,0
2017-09-28T03:10:08.825Z,0
2017-09-28T03:11:08.866Z,0
2017-09-28T03:12:09.175Z,0
2017-09-28T03:13:09.177Z,0
2017-09-28T03:14:08.554Z,0
2017-09-28T03:15:08.838Z,0
2017-09-28T03:16:08.878Z,0
2017-09-28T03:17:08.579Z,0
2017-09-28T03:18:08.877Z,0
2017-09-28T03:19:09.172Z,0
2017-09-28T03:20:09.205Z,0
2017-09-28T03:21:09.169Z,0
2017-09-28T03:22:08.865Z,0
2017-09-28T03:23:08.550Z,0
2017-09-28T03:24:08.244Z,0
2017-09-28T03:25:08.752Z,0
2017-09-28T03:26:08.849Z,0
2017-09-28T03:27:08.855Z,0
2017-09-28T03:28:08.240Z,0
2017-09-28T03:29:08.847Z,0
2017-09-28T03:30:09.121Z,0
2017-09-28T03:31:10.408Z,0
2017-09-28T03:32:08.539Z,0
2017-09-28T03:33:08.856Z,0
2017-09-28T03:34:08.541Z,0
2017-09-28T03:35:09.513Z,0
2017-09-28T03:36:08.868Z,0
2017-09-28T03:37:08.845Z,0
2017-09-28T03:38:08.534Z,0
2017-09-28T03:39:08.850Z,0
2017-09-28T03:40:08.870Z,0
2017-09-28T03:41:08.549Z,0
2017-09-28T03:42:09.144Z,0
2017-09-28T03:43:08.222Z,0
2017-09-28T03:44:08.528Z,0
2017-09-28T03:45:09.122Z,0
2017-09-28T03:46:08.531Z,0
2017-09-28T03:47:10.136Z,0
2017-09-28T03:48:08.839Z,0
2017-09-28T03:49:08.529Z,0
2017-09-28T03:50:08.793Z,0
2017-09-28T03:51:08.826Z,0
2017-09-28T03:52:08.525Z,0
2017-09-28T03:53:09.136Z,0
2017-09-28T03:54:08.204Z,0
2017-09-28T03:55:08.788Z,0
2017-09-28T03:56:09.137Z,0
2017-09-28T03:57:08.819Z,0
2017-09-28T03:58:08.509Z,0
2017-09-28T03:59:08.212Z,0
2017-09-28T04:00:09.423Z,0
2017-09-28T04:01:08.199Z,0
2017-09-28T04:02:09.116Z,0
2017-09-28T04:03:08.835Z,0
2017-09-28T04:04:08.196Z,0
2017-09-28T04:05:09.180Z,0
2017-09-28T04:06:08.846Z,0
2017-09-28T04:07:08.823Z,0
2017-09-28T04:08:07.882Z,0
2017-09-28T04:09:08.193Z,0
2017-09-28T04:10:08.282Z,0
2017-09-28T04:11:09.117Z,0
2017-09-28T04:12:09.109Z,0
2017-09-28T04:13:09.106Z,0
2017-09-28T04:14:09.115Z,0
2017-09-28T04:15:09.097Z,0
2017-09-28T04:16:09.112Z,0
2017-09-28T04:17:09.112Z,0
2017-09-28T04:18:08.802Z,0
2017-09-28T04:19:08.832Z,0
2017-09-28T04:20:09.345Z,0
2017-09-28T04:21:08.797Z,0
2017-09-28T04:22:08.795Z,0
2017-09-28T04:23:09.105Z,0
2017-09-28T04:24:08.788Z,0
2017-09-28T04:25:08.995Z,0
2017-09-28T04:26:08.485Z,0
2017-09-28T04:27:08.189Z,0
2017-09-28T04:28:08.492Z,0
2017-09-28T04:29:08.788Z,0
2017-09-28T04:30:09.525Z,0
2017-09-28T04:31:08.793Z,0
2017-09-28T04:32:10.075Z,0
2017-09-28T04:33:08.480Z,0
2017-09-28T04:34:08.792Z,0
2017-09-28T04:35:09.103Z,0
2017-09-28T04:36:08.165Z,0
2017-09-28T04:37:08.469Z,0
2017-09-28T04:38:08.772Z,0
2017-09-28T04:39:08.786Z,0
2017-09-28T04:40:08.303Z,0
2017-09-28T04:41:08.485Z,0
2017-09-28T04:42:08.472Z,0
2017-09-28T04:43:08.170Z,0
2017-09-28T04:44:08.463Z,0
2017-09-28T04:45:10.448Z,0
2017-09-28T04:46:08.791Z,0
2017-09-28T04:47:08.788Z,0
2017-09-28T04:48:08.470Z,0
2017-09-28T04:49:09.081Z,0
2017-09-28T04:50:08.342Z,0
2017-09-28T04:51:08.755Z,0
2017-09-28T04:52:08.446Z,0
2017-09-28T04:53:08.761Z,0
2017-09-28T04:54:09.073Z,0
2017-09-28T04:55:08.795Z,0
2017-09-28T04:56:08.478Z,0
2017-09-28T04:57:08.449Z,0
2017-09-28T04:58:08.459Z,0
2017-09-28T04:59:08.441Z,0
2017-09-28T05:00:08.582Z,0
2017-09-28T05:01:08.449Z,0
2017-09-28T05:02:10.711Z,0
2017-09-28T05:03:08.774Z,0
2017-09-28T05:04:08.437Z,0
2017-09-28T05:05:09.036Z,0
2017-09-28T05:06:08.756Z,0
2017-09-28T05:07:08.752Z,0
2017-09-28T05:08:08.453Z,0
2017-09-28T05:09:08.762Z,0
2017-09-28T05:10:08.298Z,0
2017-09-28T05:11:08.744Z,0
2017-09-28T05:12:08.457Z,0
2017-09-28T05:13:08.466Z,0
2017-09-28T05:14:08.743Z,0
2017-09-28T05:15:08.781Z,0
2017-09-28T05:16:08.444Z,0
2017-09-28T05:17:08.741Z,5
2017-09-28T05:18:08.111Z,5
2017-09-28T05:19:08.777Z,5
2017-09-28T05:20:08.269Z,5
2017-09-28T05:21:09.040Z,5
2017-09-28T05:22:08.423Z,5
2017-09-28T05:23:08.419Z,5
2017-09-28T05:24:09.041Z,5
2017-09-28T05:25:09.068Z,10
2017-09-28T05:26:08.723Z,10
2017-09-28T05:27:08.416Z,10
2017-09-28T05:28:09.051Z,10
2017-09-28T05:29:08.424Z,10
2017-09-28T05:30:08.632Z,10
2017-09-28T05:31:08.721Z,15
2017-09-28T05:32:09.030Z,15
2017-09-28T05:33:12.071Z,15
2017-09-28T05:34:08.105Z,15
2017-09-28T05:35:09.043Z,15
2017-09-28T05:36:08.409Z,20
2017-09-28T05:37:08.708Z,20
2017-09-28T05:38:08.396Z,20
2017-09-28T05:39:08.716Z,20
2017-09-28T05:40:08.263Z,20
2017-09-28T05:41:09.011Z,25
2017-09-28T05:42:08.709Z,25
2017-09-28T05:43:08.707Z,25
2017-09-28T05:44:08.739Z,25
2017-09-28T05:45:09.388Z,25
2017-09-28T05:46:08.710Z,30
2017-09-28T05:47:08.101Z,30
2017-09-28T05:48:10.817Z,30
2017-09-28T05:49:08.693Z,30
2017-09-28T05:50:09.344Z,35
2017-09-28T05:51:08.690Z,35
2017-09-28T05:52:08.710Z,35
2017-09-28T05:53:09.007Z,40
2017-09-28T05:54:08.378Z,40
2017-09-28T05:55:09.006Z,40
2017-09-28T05:56:08.376Z,40
2017-09-28T05:57:09.000Z,45
2017-09-28T05:58:08.687Z,45
2017-09-28T05:59:08.384Z,45
2017-09-28T06:00:08.967Z,50
2017-09-28T06:01:08.698Z,50
2017-09-28T06:02:08.988Z,50
2017-09-28T06:03:09.442Z,50
2017-09-28T06:04:08.371Z,50
2017-09-28T06:05:09.364Z,50
2017-09-28T06:06:08.997Z,50
2017-09-28T06:07:08.992Z,50
2017-09-28T06:08:08.685Z,50
2017-09-28T06:09:09.013Z,50
2017-09-28T06:10:09.354Z,55
2017-09-28T06:11:08.680Z,55
2017-09-28T06:12:08.360Z,55
2017-09-28T06:13:08.665Z,60
2017-09-28T06:14:08.367Z,60
2017-09-28T06:15:09.320Z,60
2017-09-28T06:16:08.673Z,65
2017-09-28T06:17:08.985Z,65
2017-09-28T06:18:08.691Z,70
2017-09-28T06:19:08.980Z,70
2017-09-28T06:20:08.984Z,70
2017-09-28T06:21:08.665Z,75
2017-09-28T06:22:08.971Z,75
2017-09-28T06:23:08.980Z,80
2017-09-28T06:24:08.972Z,80
2017-09-28T06:25:09.124Z,85
2017-09-28T06:26:08.349Z,85
2017-09-28T06:27:08.651Z,85
2017-09-28T06:28:08.986Z,90
2017-09-28T06:29:08.995Z,90
2017-09-28T06:30:09.382Z,95
2017-09-28T06:31:08.652Z,95
2017-09-28T06:32:08.652Z,100
2017-09-28T06:33:09.152Z,100
2017-09-28T06:34:08.968Z,100
2017-09-28T06:35:09.288Z,105
2017-09-28T06:36:08.993Z,105
2017-09-28T06:37:08.951Z,105
2017-09-28T06:38:08.985Z,110
2017-09-28T06:39:08.327Z,115
2017-09-28T06:40:09.309Z,120
2017-09-28T06:41:08.370Z,120
2017-09-28T06:42:08.953Z,125
2017-09-28T06:43:08.018Z,125
2017-09-28T06:44:08.639Z,130
2017-09-28T06:45:08.986Z,135
2017-09-28T06:46:08.342Z,140
2017-09-28T06:47:08.637Z,140
2017-09-28T06:48:08.944Z,140
2017-09-28T06:49:08.322Z,140
2017-09-28T06:50:08.524Z,140
2017-09-28T06:51:08.329Z,135
2017-09-28T06:52:08.639Z,135
2017-09-28T06:53:08.943Z,145
2017-09-28T06:54:08.327Z,145
2017-09-28T06:55:09.019Z,145
2017-09-28T06:56:08.635Z,150
2017-09-28T06:57:08.944Z,160
2017-09-28T06:58:08.628Z,170
2017-09-28T06:59:08.633Z,170
2017-09-28T07:00:08.628Z,160
2017-09-28T07:01:08.944Z,160
2017-09-28T07:02:08.946Z,170
2017-09-28T07:03:08.312Z,160
2017-09-28T07:04:09.423Z,155
2017-09-28T07:05:09.323Z,160
2017-09-28T07:06:08.008Z,170
2017-09-28T07:07:08.334Z,170
2017-09-28T07:08:07.700Z,175
2017-09-28T07:09:08.312Z,175
2017-09-28T07:10:08.507Z,180
2017-09-28T07:11:08.637Z,190
2017-09-28T07:12:08.638Z,200
2017-09-28T07:13:08.626Z,190
2017-09-28T07:14:08.953Z,175
2017-09-28T07:15:08.551Z,170
2017-09-28T07:16:08.364Z,190
2017-09-28T07:17:08.626Z,200
2017-09-28T07:18:08.633Z,205
2017-09-28T07:19:08.318Z,190
2017-09-28T07:20:08.500Z,190
2017-09-28T07:21:08.050Z,190
2017-09-28T07:22:08.961Z,190
2017-09-28T07:23:08.954Z,190
2017-09-28T07:24:08.646Z,180
2017-09-28T07:25:08.564Z,175
2017-09-28T07:26:08.337Z,185
2017-09-28T07:27:08.660Z,185
2017-09-28T07:28:08.956Z,185
2017-09-28T07:29:08.645Z,185
2017-09-28T07:30:09.238Z,180
2017-09-28T07:31:08.963Z,180
2017-09-28T07:32:08.646Z,170
2017-09-28T07:33:08.965Z,165
2017-09-28T07:34:09.224Z,165
2017-09-28T07:35:08.913Z,180
2017-09-28T07:36:08.340Z,195
2017-09-28T07:37:08.651Z,205
2017-09-28T07:38:08.052Z,210
2017-09-28T07:39:08.354Z,215
2017-09-28T07:40:09.327Z,205
2017-09-28T07:41:08.983Z,205
2017-09-28T07:42:08.082Z,200
2017-09-28T07:43:08.051Z,185
2017-09-28T07:44:08.680Z,185
2017-09-28T07:45:08.669Z,190
2017-09-28T07:46:08.688Z,190
2017-09-28T07:47:08.985Z,190
2017-09-28T07:48:08.684Z,195
2017-09-28T07:49:08.367Z,195
2017-09-28T07:50:08.944Z,185
2017-09-28T07:51:08.685Z,190
2017-09-28T07:52:08.708Z,205
2017-09-28T07:53:08.693Z,195
2017-09-28T07:54:08.694Z,205
2017-09-28T07:55:09.345Z,210
2017-09-28T07:56:08.389Z,220
2017-09-28T07:57:08.710Z,220
2017-09-28T07:58:08.397Z,225
2017-09-28T07:59:08.699Z,220
2017-09-28T08:00:08.646Z,230
2017-09-28T08:01:08.396Z,245
2017-09-28T08:02:08.401Z,255
2017-09-28T08:03:08.714Z,255
2017-09-28T08:04:09.970Z,260
2017-09-28T08:05:08.647Z,260
2017-09-28T08:06:08.725Z,270
2017-09-28T08:07:08.736Z,275
2017-09-28T08:08:08.408Z,280
2017-09-28T08:09:08.103Z,285
2017-09-28T08:10:09.010Z,285
2017-09-28T08:11:08.737Z,295
2017-09-28T08:12:08.732Z,295
2017-09-28T08:13:08.778Z,300
2017-09-28T08:14:08.436Z,300
2017-09-28T08:15:08.701Z,290
2017-09-28T08:16:08.751Z,280
2017-09-28T08:17:08.754Z,275
2017-09-28T08:18:08.447Z,275
2017-09-28T08:19:09.070Z,260
2017-09-28T08:20:08.278Z,260
2017-09-28T08:21:08.763Z,265
2017-09-28T08:22:08.455Z,260
2017-09-28T08:23:09.095Z,255
2017-09-28T08:24:09.088Z,245
2017-09-28T08:25:08.267Z,240
2017-09-28T08:26:08.790Z,240
2017-09-28T08:27:08.783Z,235
2017-09-28T08:28:08.164Z,235
2017-09-28T08:29:08.791Z,230
2017-09-28T08:30:09.420Z,225
2017-09-28T08:31:08.789Z,230
2017-09-28T08:32:08.174Z,225
2017-09-28T08:33:08.490Z,220
2017-09-28T08:34:12.151Z,220
2017-09-28T08:35:09.125Z,225
2017-09-28T08:36:09.167Z,220
2017-09-28T08:37:08.514Z,220
2017-09-28T08:38:09.116Z,225
2017-09-28T08:39:08.814Z,225
2017-09-28T08:40:09.104Z,225
2017-09-28T08:41:08.815Z,225
2017-09-28T08:42:07.913Z,225
2017-09-28T08:43:08.216Z,230
2017-09-28T08:44:08.840Z,240
2017-09-28T08:45:09.136Z,245
2017-09-28T08:46:09.144Z,255
2017-09-28T08:47:08.524Z,260
2017-09-28T08:48:08.543Z,255
2017-09-28T08:49:08.878Z,255
2017-09-28T08:50:08.858Z,265
2017-09-28T08:51:09.153Z,265
2017-09-28T08:52:08.561Z,280
2017-09-28T08:53:08.866Z,275
2017-09-28T08:54:08.591Z,260
2017-09-28T08:55:09.532Z,265
2017-09-28T08:56:09.199Z,260
2017-09-28T08:57:08.569Z,260
2017-09-28T08:58:08.561Z,260
2017-09-28T08:59:08.868Z,255
2017-09-28T09:00:09.609Z,250
2017-09-28T09:01:08.262Z,250
2017-09-28T09:02:08.875Z,250
2017-09-28T09:03:08.573Z,240
2017-09-28T09:04:08.266Z,235
2017-09-28T09:05:12.735Z,235
2017-09-28T09:06:08.886Z,230
2017-09-28T09:07:08.612Z,230
2017-09-28T09:08:08.622Z,230
2017-09-28T09:09:09.212Z,225
2017-09-28T09:10:08.445Z,225
2017-09-28T09:11:08.913Z,220
2017-09-28T09:12:08.598Z,220
2017-09-28T09:13:08.910Z,215
2017-09-28T09:14:08.951Z,215
2017-09-28T09:15:09.297Z,210
2017-09-28T09:16:09.224Z,210
2017-09-28T09:17:08.302Z,210
2017-09-28T09:18:08.319Z,205
2017-09-28T09:19:08.626Z,200
2017-09-28T09:20:09.446Z,200
2017-09-28T09:21:08.310Z,205
2017-09-28T09:22:08.631Z,205
2017-09-28T09:23:09.250Z,210
2017-09-28T09:24:08.629Z,215
2017-09-28T09:25:09.429Z,220
2017-09-28T09:26:08.951Z,235
2017-09-28T09:27:09.291Z,245
2017-09-28T09:28:08.659Z,240
2017-09-28T09:29:09.270Z,225
2017-09-28T09:30:09.755Z,225
2017-09-28T09:31:08.689Z,220
2017-09-28T09:32:09.280Z,220
2017-09-28T09:33:08.977Z,220
2017-09-28T09:34:08.976Z,230
2017-09-28T09:35:11.608Z,235
2017-09-28T09:36:08.974Z,255
2017-09-28T09:37:09.288Z,270
2017-09-28T09:38:08.684Z,280
2017-09-28T09:39:08.678Z,305
2017-09-28T09:40:09.391Z,305
2017-09-28T09:41:08.989Z,305
2017-09-28T09:42:08.689Z,320
2017-09-28T09:43:08.693Z,320
2017-09-28T09:44:08.713Z,335
2017-09-28T09:45:08.929Z,325
2017-09-28T09:46:08.697Z,320
2017-09-28T09:47:08.701Z,310
2017-09-28T09:48:09.026Z,315
2017-09-28T09:49:09.342Z,320
2017-09-28T09:50:09.718Z,320
2017-09-28T09:51:09.413Z,315
2017-09-28T09:52:08.733Z,290
2017-09-28T09:53:09.031Z,290
2017-09-28T09:54:08.430Z,295
2017-09-28T09:55:09.176Z,295
2017-09-28T09:56:08.770Z,300
2017-09-28T09:57:09.046Z,295
2017-09-28T09:58:09.059Z,295
2017-09-28T09:59:08.433Z,285
2017-09-28T10:00:09.248Z,285
2017-09-28T10:01:08.498Z,285
2017-09-28T10:02:09.436Z,305
2017-09-28T10:03:08.755Z,290
2017-09-28T10:04:08.773Z,290
2017-09-28T10:05:11.686Z,285
2017-09-28T10:06:09.322Z,270
2017-09-28T10:07:08.627Z,260
2017-09-28T10:08:08.793Z,260
2017-09-28T10:09:08.783Z,260
2017-09-28T10:10:09.101Z,255
2017-09-28T10:11:09.405Z,255
2017-09-28T10:12:09.121Z,255
2017-09-28T10:13:08.808Z,255
2017-09-28T10:14:09.145Z,255
2017-09-28T10:15:08.649Z,255
2017-09-28T10:16:09.142Z,250
2017-09-28T10:17:08.833Z,250
2017-09-28T10:18:08.836Z,250
2017-09-28T10:19:08.522Z,250
2017-09-28T10:20:08.690Z,250
2017-09-28T10:21:08.526Z,250
2017-09-28T10:22:08.846Z,250
2017-09-28T10:23:08.526Z,245
2017-09-28T10:24:09.161Z,245
2017-09-28T10:25:08.815Z,245
2017-09-28T10:26:09.181Z,245
2017-09-28T10:27:09.170Z,245
2017-09-28T10:28:08.564Z,245
2017-09-28T10:29:09.205Z,245
2017-09-28T10:30:08.798Z,245
2017-09-28T10:31:09.191Z,245
2017-09-28T10:32:08.576Z,245
2017-09-28T10:33:08.890Z,245
2017-09-28T10:34:09.200Z,245
2017-09-28T10:35:09.548Z,245
2017-09-28T10:36:11.087Z,240
2017-09-28T10:37:08.898Z,240
2017-09-28T10:38:08.972Z,240
2017-09-28T10:39:08.912Z,240
2017-09-28T10:40:08.965Z,235
2017-09-28T10:41:09.223Z,235
2017-09-28T10:42:09.272Z,235
2017-09-28T10:43:09.280Z,235
2017-09-28T10:44:09.549Z,235
2017-09-28T10:45:09.997Z,230
2017-09-28T10:46:09.565Z,230
2017-09-28T10:47:08.635Z,235
2017-09-28T10:48:09.243Z,235
2017-09-28T10:49:09.249Z,240
2017-09-28T10:50:09.553Z,245
2017-09-28T10:51:10.855Z,255
2017-09-28T10:52:09.259Z,255
2017-09-28T10:53:09.269Z,255
2017-09-28T10:54:08.957Z,255
2017-09-28T10:55:09.269Z,260
2017-09-28T10:56:08.967Z,255
2017-09-28T10:57:09.276Z,255
2017-09-28T10:58:09.664Z,260
2017-09-28T10:59:08.970Z,255
2017-09-28T11:00:09.667Z,260
2017-09-28T11:01:09.609Z,255
2017-09-28T11:02:09.241Z,250
2017-09-28T11:03:08.684Z,250
2017-09-28T11:04:09.305Z,245
2017-09-28T11:05:09.244Z,245
2017-09-28T11:06:09.628Z,240
2017-09-28T11:07:08.389Z,240
2017-09-28T11:08:09.319Z,240
2017-09-28T11:09:08.709Z,235
2017-09-28T11:10:09.347Z,230
2017-09-28T11:11:09.028Z,230
2017-09-28T11:12:08.440Z,225
2017-09-28T11:13:09.335Z,220
2017-09-28T11:14:09.645Z,220
2017-09-28T11:15:09.805Z,215
2017-09-28T11:16:08.732Z,215
2017-09-28T11:17:09.124Z,215
2017-09-28T11:18:09.437Z,225
2017-09-28T11:19:09.106Z,225
2017-09-28T11:20:09.114Z,225
2017-09-28T11:21:09.080Z,225
2017-09-28T11:22:09.754Z,230
2017-09-28T11:23:09.759Z,230
2017-09-28T11:24:09.694Z,235
2017-09-28T11:25:09.395Z,240
2017-09-28T11:26:08.778Z,245
2017-09-28T11:27:09.393Z,245
2017-09-28T11:28:09.090Z,245
2017-09-28T11:29:09.393Z,245
2017-09-28T11:30:09.366Z,250
2017-09-28T11:31:09.406Z,255
2017-09-28T11:32:09.745Z,255
2017-09-28T11:33:09.427Z,255
2017-09-28T11:34:09.736Z,270
2017-09-28T11:35:09.134Z,260
2017-09-28T11:36:09.684Z,275
2017-09-28T11:37:09.427Z,265
2017-09-28T11:38:09.448Z,260
2017-09-28T11:39:09.449Z,255
2017-09-28T11:40:09.403Z,260
2017-09-28T11:41:09.451Z,275
2017-09-28T11:42:09.463Z,255
2017-09-28T11:43:09.445Z,255
2017-09-28T11:44:08.844Z,245
2017-09-28T11:45:09.766Z,240
2017-09-28T11:46:09.158Z,240
2017-09-28T11:47:09.779Z,235
2017-09-28T11:48:09.171Z,235
2017-09-28T11:49:09.490Z,235
2017-09-28T11:50:10.368Z,230
2017-09-28T11:51:09.189Z,235
2017-09-28T11:52:10.608Z,245
2017-09-28T11:53:09.498Z,255
2017-09-28T11:54:09.494Z,245
2017-09-28T11:55:09.281Z,245
2017-09-28T11:56:09.828Z,240
2017-09-28T11:57:09.593Z,240
2017-09-28T11:58:09.526Z,235
2017-09-28T11:59:09.532Z,235
2017-09-28T12:00:09.967Z,225
2017-09-28T12:01:09.864Z,235
2017-09-28T12:02:09.235Z,235
2017-09-28T12:03:08.933Z,235
2017-09-28T12:04:09.577Z,230
2017-09-28T12:05:10.002Z,230
2017-09-28T12:06:08.942Z,235
2017-09-28T12:07:11.317Z,230
2017-09-28T12:08:09.578Z,225
2017-09-28T12:09:09.586Z,215
2017-09-28T12:10:09.760Z,220
2017-09-28T12:11:09.481Z,215
2017-09-28T12:12:09.768Z,215
2017-09-28T12:13:09.943Z,210
2017-09-28T12:14:09.598Z,210
2017-09-28T12:15:09.667Z,220
2017-09-28T12:16:09.128Z,210
2017-09-28T12:17:09.326Z,210
2017-09-28T12:18:09.954Z,225
2017-09-28T12:19:09.315Z,220
2017-09-28T12:20:09.669Z,225
2017-09-28T12:21:09.643Z,235
2017-09-28T12:22:09.323Z,225
2017-09-28T12:23:09.348Z,230
2017-09-28T12:24:09.975Z,245
2017-09-28T12:25:09.738Z,230
2017-09-28T12:26:09.958Z,230
2017-09-28T12:27:09.662Z,230
2017-09-28T12:28:09.980Z,240
2017-09-28T12:29:09.357Z,225
2017-09-28T12:30:09.408Z,225
2017-09-28T12:31:09.679Z,220
2017-09-28T12:32:09.072Z,215
2017-09-28T12:33:09.695Z,215
2017-09-28T12:34:09.710Z,210
2017-09-28T12:35:09.684Z,210
2017-09-28T12:36:09.720Z,215
2017-09-28T12:37:12.328Z,215
2017-09-28T12:38:09.400Z,220
2017-09-28T12:39:09.409Z,215
2017-09-28T12:40:10.147Z,215
2017-09-28T12:41:09.100Z,215
2017-09-28T12:42:09.719Z,210
2017-09-28T12:43:09.733Z,230
2017-09-28T12:44:09.734Z,210
2017-09-28T12:45:10.303Z,210
2017-09-28T12:46:09.438Z,205
2017-09-28T12:47:09.751Z,200
2017-09-28T12:48:09.443Z,195
2017-09-28T12:49:09.444Z,195
2017-09-28T12:50:10.222Z,200
2017-09-28T12:51:09.796Z,205
2017-09-28T12:52:10.142Z,205
2017-09-28T12:53:09.466Z,210
2017-09-28T12:54:09.477Z,205
2017-09-28T12:55:10.696Z,210
2017-09-28T12:56:09.797Z,195
2017-09-28T12:57:10.130Z,205
2017-09-28T12:58:09.807Z,200
2017-09-28T12:59:10.120Z,200
2017-09-28T13:00:10.278Z,200
2017-09-28T13:01:09.196Z,205
2017-09-28T13:02:09.848Z,205
2017-09-28T13:03:09.538Z,190
2017-09-28T13:04:09.851Z,195
2017-09-28T13:05:09.234Z,200
2017-09-28T13:06:09.839Z,190
2017-09-28T13:07:09.547Z,190
2017-09-28T13:08:11.640Z,195
2017-09-28T13:09:09.546Z,200
2017-09-28T13:10:10.334Z,200
2017-09-28T13:11:09.562Z,200
2017-09-28T13:12:09.864Z,200
2017-09-28T13:13:09.563Z,200
2017-09-28T13:14:09.570Z,205
2017-09-28T13:15:09.967Z,205
2017-09-28T13:16:09.581Z,200
2017-09-28T13:17:09.588Z,195
2017-09-28T13:18:10.316Z,195
2017-09-28T13:19:09.938Z,195
2017-09-28T13:20:09.689Z,200
2017-09-28T13:21:09.923Z,205
2017-09-28T13:22:09.927Z,205
2017-09-28T13:23:09.927Z,205
2017-09-28T13:24:09.623Z,205
2017-09-28T13:25:10.056Z,205
2017-09-28T13:26:09.318Z,205
2017-09-28T13:27:09.941Z,205
2017-09-28T13:28:09.937Z,205
2017-09-28T13:29:10.271Z,200
2017-09-28T13:30:10.908Z,200
2017-09-28T13:31:09.649Z,200
2017-09-28T13:32:09.984Z,195
2017-09-28T13:33:09.660Z,190
2017-09-28T13:34:09.964Z,195
2017-09-28T13:35:10.319Z,195
2017-09-28T13:36:09.998Z,190
2017-09-28T13:37:09.982Z,190
2017-09-28T13:38:11.801Z,195
2017-09-28T13:39:10.007Z,190
2017-09-28T13:40:10.212Z,190
2017-09-28T13:41:10.314Z,195
2017-09-28T13:42:09.726Z,195
2017-09-28T13:43:10.321Z,200
2017-09-28T13:44:09.850Z,200
2017-09-28T13:45:10.192Z,195
2017-09-28T13:46:10.055Z,200
2017-09-28T13:47:10.036Z,185
2017-09-28T13:48:09.726Z,185
2017-09-28T13:49:10.040Z,190
2017-09-28T13:50:10.335Z,180
2017-09-28T13:51:10.060Z,170
2017-09-28T13:52:10.062Z,175
2017-09-28T13:53:09.753Z,175
2017-09-28T13:54:10.067Z,170
2017-09-28T13:55:10.176Z,175
2017-09-28T13:56:10.076Z,170
2017-09-28T13:57:10.389Z,170
2017-09-28T13:58:09.490Z,170
2017-09-28T13:59:10.098Z,170
2017-09-28T14:00:10.674Z,170
2017-09-28T14:01:10.102Z,165
2017-09-28T14:02:10.118Z,165
2017-09-28T14:03:09.812Z,165
2017-09-28T14:04:09.808Z,165
2017-09-28T14:05:10.460Z,165
2017-09-28T14:06:09.832Z,170
2017-09-28T14:07:10.134Z,170
2017-09-28T14:08:09.832Z,175
2017-09-28T14:09:11.958Z,170
2017-09-28T14:10:10.431Z,170